sensor_id;sensor_type;location;lat;lon;timestamp;pressure;altitude;pressure_sealevel;temperature;humidity
21566;BME280;10943;48.738;9.320;2022-11-03T00:00:15;99318.06;;;9.68;66.56
21566;BME280;10943;48.738;9.320;2022-11-03T00:02:43;99317.66;;;9.64;66.62
21566;BME280;10943;48.738;9.320;2022-11-03T00:05:13;99314.22;;;9.69;66.32
21566;BME280;10943;48.738;9.320;2022-11-03T00:08:11;99312.72;;;9.41;66.91
21566;BME280;10943;48.738;9.320;2022-11-03T00:11:24;99315.63;;;9.53;67.00
21566;BME280;10943;48.738;9.320;2022-11-03T00:13:53;99319.81;;;9.62;66.57
21566;BME280;10943;48.738;9.320;2022-11-03T00:17:19;99310.44;;;9.63;66.31
21566;BME280;10943;48.738;9.320;2022-11-03T00:19:49;99302.53;;;9.67;65.85
21566;BME280;10943;48.738;9.320;2022-11-03T00:22:18;99311.66;;;9.67;66.10
21566;BME280;10943;48.738;9.320;2022-11-03T00:24:45;99299.81;;;9.60;66.00
21566;BME280;10943;48.738;9.320;2022-11-03T00:27:16;99305.91;;;9.69;65.85
21566;BME280;10943;48.738;9.320;2022-11-03T00:29:46;99301.53;;;9.54;65.96
21566;BME280;10943;48.738;9.320;2022-11-03T00:32:24;99300.59;;;9.67;65.67
21566;BME280;10943;48.738;9.320;2022-11-03T00:34:54;99296.06;;;9.48;65.68
21566;BME280;10943;48.738;9.320;2022-11-03T00:37:32;99293.06;;;9.49;66.23
21566;BME280;10943;48.738;9.320;2022-11-03T00:40:05;99283.44;;;9.27;66.73
21566;BME280;10943;48.738;9.320;2022-11-03T00:42:39;99279.59;;;9.21;66.64
21566;BME280;10943;48.738;9.320;2022-11-03T00:45:13;99283.75;;;9.05;67.04
21566;BME280;10943;48.738;9.320;2022-11-03T00:47:54;99278.31;;;9.23;66.63
21566;BME280;10943;48.738;9.320;2022-11-03T00:51:27;99269.25;;;9.41;65.76
21566;BME280;10943;48.738;9.320;2022-11-03T00:54:07;99268.53;;;9.28;66.38
21566;BME280;10943;48.738;9.320;2022-11-03T00:56:41;99261.34;;;9.20;66.56
21566;BME280;10943;48.738;9.320;2022-11-03T00:59:12;99260.09;;;9.09;66.34
21566;BME280;10943;48.738;9.320;2022-11-03T01:01:48;99268.19;;;9.11;66.60
21566;BME280;10943;48.738;9.320;2022-11-03T01:04:46;99262.72;;;8.97;67.17
21566;BME280;10943;48.738;9.320;2022-11-03T01:07:35;99260.56;;;9.06;66.79
21566;BME280;10943;48.738;9.320;2022-11-03T01:10:03;99247.19;;;8.96;66.49
21566;BME280;10943;48.738;9.320;2022-11-03T01:12:48;99238.47;;;8.99;66.85
21566;BME280;10943;48.738;9.320;2022-11-03T01:15:29;99252.78;;;8.89;66.60
21566;BME280;10943;48.738;9.320;2022-11-03T01:18:01;99242.63;;;8.77;67.17
21566;BME280;10943;48.738;9.320;2022-11-03T01:20:32;99236.81;;;8.33;68.60
21566;BME280;10943;48.738;9.320;2022-11-03T01:23:02;99243.38;;;8.45;68.19
21566;BME280;10943;48.738;9.320;2022-11-03T01:25:31;99235.13;;;8.25;68.86
21566;BME280;10943;48.738;9.320;2022-11-03T01:28:26;99238.97;;;8.24;68.78
21566;BME280;10943;48.738;9.320;2022-11-03T01:31:19;99231.19;;;7.94;69.42
21566;BME280;10943;48.738;9.320;2022-11-03T01:37:26;99218.44;;;7.93;69.43
21566;BME280;10943;48.738;9.320;2022-11-03T01:39:59;99213.91;;;8.19;69.11
21566;BME280;10943;48.738;9.320;2022-11-03T01:42:40;99206.44;;;8.26;67.74
21566;BME280;10943;48.738;9.320;2022-11-03T01:45:20;99220.53;;;8.11;67.90
21566;BME280;10943;48.738;9.320;2022-11-03T01:47:52;99210.09;;;8.06;67.31
21566;BME280;10943;48.738;9.320;2022-11-03T01:50:23;99209.06;;;8.07;68.63
21566;BME280;10943;48.738;9.320;2022-11-03T01:52:57;99203.75;;;8.06;68.63
21566;BME280;10943;48.738;9.320;2022-11-03T01:55:42;99195.81;;;8.30;67.71
21566;BME280;10943;48.738;9.320;2022-11-03T01:58:23;99202.78;;;8.39;67.29
21566;BME280;10943;48.738;9.320;2022-11-03T02:00:57;99203.69;;;8.26;67.47
21566;BME280;10943;48.738;9.320;2022-11-03T02:03:37;99204.78;;;8.12;67.64
21566;BME280;10943;48.738;9.320;2022-11-03T02:06:11;99192.00;;;8.31;67.94
21566;BME280;10943;48.738;9.320;2022-11-03T02:11:26;99179.13;;;8.63;66.55
21566;BME280;10943;48.738;9.320;2022-11-03T02:14:13;99180.03;;;8.50;66.80
21566;BME280;10943;48.738;9.320;2022-11-03T02:16:48;99173.78;;;8.09;67.64
21566;BME280;10943;48.738;9.320;2022-11-03T02:19:34;99171.56;;;8.38;66.28
21566;BME280;10943;48.738;9.320;2022-11-03T02:24:52;99171.38;;;7.41;69.47
21566;BME280;10943;48.738;9.320;2022-11-03T02:27:35;99167.94;;;7.12;70.70
21566;BME280;10943;48.738;9.320;2022-11-03T02:30:03;99168.16;;;7.64;69.36
21566;BME280;10943;48.738;9.320;2022-11-03T02:32:55;99171.16;;;7.42;69.84
21566;BME280;10943;48.738;9.320;2022-11-03T02:38:33;99162.66;;;7.17;70.61
21566;BME280;10943;48.738;9.320;2022-11-03T02:41:08;99155.63;;;7.48;69.49
21566;BME280;10943;48.738;9.320;2022-11-03T02:43:37;99164.09;;;7.60;68.45
21566;BME280;10943;48.738;9.320;2022-11-03T02:46:07;99162.00;;;7.62;67.98
21566;BME280;10943;48.738;9.320;2022-11-03T02:48:35;99160.09;;;7.56;68.39
21566;BME280;10943;48.738;9.320;2022-11-03T02:51:03;99150.53;;;7.58;68.39
21566;BME280;10943;48.738;9.320;2022-11-03T02:54:05;99144.81;;;7.53;68.52
21566;BME280;10943;48.738;9.320;2022-11-03T02:56:48;99144.53;;;7.88;68.32
21566;BME280;10943;48.738;9.320;2022-11-03T02:59:25;99140.06;;;7.94;67.05
21566;BME280;10943;48.738;9.320;2022-11-03T03:02:06;99134.28;;;8.09;66.88
21566;BME280;10943;48.738;9.320;2022-11-03T03:04:42;99121.13;;;8.04;66.83
21566;BME280;10943;48.738;9.320;2022-11-03T03:07:23;99119.66;;;7.95;67.00
21566;BME280;10943;48.738;9.320;2022-11-03T03:10:33;99109.69;;;7.87;66.34
21566;BME280;10943;48.738;9.320;2022-11-03T03:12:57;99111.00;;;7.78;67.43
21566;BME280;10943;48.738;9.320;2022-11-03T03:18:24;99100.63;;;7.73;67.60
21566;BME280;10943;48.738;9.320;2022-11-03T03:21:14;99092.53;;;7.85;67.54
21566;BME280;10943;48.738;9.320;2022-11-03T03:23:53;99096.97;;;7.80;66.96
21566;BME280;10943;48.738;9.320;2022-11-03T03:26:43;99095.75;;;7.69;67.33
21566;BME280;10943;48.738;9.320;2022-11-03T03:29:18;99089.31;;;7.88;67.35
21566;BME280;10943;48.738;9.320;2022-11-03T03:31:56;99081.91;;;8.27;66.34
21566;BME280;10943;48.738;9.320;2022-11-03T03:34:27;99079.06;;;8.02;66.86
21566;BME280;10943;48.738;9.320;2022-11-03T03:37:05;99082.81;;;8.15;66.25
21566;BME280;10943;48.738;9.320;2022-11-03T03:39:37;99075.94;;;7.92;66.94
21566;BME280;10943;48.738;9.320;2022-11-03T03:42:09;99072.41;;;7.65;67.92
21566;BME280;10943;48.738;9.320;2022-11-03T03:44:40;99071.63;;;7.37;68.73
21566;BME280;10943;48.738;9.320;2022-11-03T03:47:24;99072.66;;;7.50;68.90
21566;BME280;10943;48.738;9.320;2022-11-03T03:49:56;99074.50;;;7.76;67.12
21566;BME280;10943;48.738;9.320;2022-11-03T03:52:24;99062.06;;;8.05;66.87
21566;BME280;10943;48.738;9.320;2022-11-03T03:54:52;99059.47;;;8.10;66.28
21566;BME280;10943;48.738;9.320;2022-11-03T03:57:26;99059.63;;;7.77;66.85
21566;BME280;10943;48.738;9.320;2022-11-03T03:59:54;99053.34;;;7.50;67.48
21566;BME280;10943;48.738;9.320;2022-11-03T04:02:22;99053.34;;;7.56;67.93
21566;BME280;10943;48.738;9.320;2022-11-03T04:04:49;99035.84;;;7.83;67.23
21566;BME280;10943;48.738;9.320;2022-11-03T04:07:17;99044.34;;;7.81;67.17
21566;BME280;10943;48.738;9.320;2022-11-03T04:10:09;99031.44;;;7.68;67.84
21566;BME280;10943;48.738;9.320;2022-11-03T04:12:40;99028.72;;;7.55;68.08
21566;BME280;10943;48.738;9.320;2022-11-03T04:15:27;99025.38;;;7.98;66.92
21566;BME280;10943;48.738;9.320;2022-11-03T04:18:16;99020.59;;;7.73;67.28
21566;BME280;10943;48.738;9.320;2022-11-03T04:21:04;99011.88;;;7.76;67.25
21566;BME280;10943;48.738;9.320;2022-11-03T04:23:53;99004.59;;;7.30;68.54
21566;BME280;10943;48.738;9.320;2022-11-03T04:26:21;99006.91;;;7.40;68.83
21566;BME280;10943;48.738;9.320;2022-11-03T04:28:50;98995.31;;;7.11;68.88
21566;BME280;10943;48.738;9.320;2022-11-03T04:31:20;98995.53;;;6.96;69.32
21566;BME280;10943;48.738;9.320;2022-11-03T04:33:48;98994.25;;;7.19;68.70
21566;BME280;10943;48.738;9.320;2022-11-03T04:36:22;98997.16;;;7.37;68.42
21566;BME280;10943;48.738;9.320;2022-11-03T04:38:51;98994.41;;;7.37;68.61
21566;BME280;10943;48.738;9.320;2022-11-03T04:41:31;98992.69;;;7.36;68.77
21566;BME280;10943;48.738;9.320;2022-11-03T04:43:59;98991.63;;;7.37;67.77
21566;BME280;10943;48.738;9.320;2022-11-03T04:46:30;98979.78;;;7.30;68.12
21566;BME280;10943;48.738;9.320;2022-11-03T04:48:59;98977.00;;;7.30;68.50
21566;BME280;10943;48.738;9.320;2022-11-03T04:51:42;98987.19;;;7.36;68.39
21566;BME280;10943;48.738;9.320;2022-11-03T04:54:22;98977.72;;;7.19;68.33
21566;BME280;10943;48.738;9.320;2022-11-03T04:56:50;98973.72;;;6.94;69.57
21566;BME280;10943;48.738;9.320;2022-11-03T04:59:17;98975.41;;;6.82;69.31
21566;BME280;10943;48.738;9.320;2022-11-03T05:01:45;98968.66;;;6.44;70.52
21566;BME280;10943;48.738;9.320;2022-11-03T05:04:16;98961.03;;;6.47;70.64
21566;BME280;10943;48.738;9.320;2022-11-03T05:06:52;98957.41;;;6.86;69.54
21566;BME280;10943;48.738;9.320;2022-11-03T05:09:28;98968.16;;;7.15;68.36
21566;BME280;10943;48.738;9.320;2022-11-03T05:11:56;98961.44;;;6.90;69.24
21566;BME280;10943;48.738;9.320;2022-11-03T05:14:26;98959.34;;;6.72;70.25
21566;BME280;10943;48.738;9.320;2022-11-03T05:16:56;98957.88;;;6.63;70.37
21566;BME280;10943;48.738;9.320;2022-11-03T05:19:32;98947.25;;;6.67;70.29
21566;BME280;10943;48.738;9.320;2022-11-03T05:22:02;98955.31;;;6.55;71.34
21566;BME280;10943;48.738;9.320;2022-11-03T05:24:31;98947.25;;;6.60;70.60
21566;BME280;10943;48.738;9.320;2022-11-03T05:26:59;98939.81;;;6.81;69.49
21566;BME280;10943;48.738;9.320;2022-11-03T05:29:36;98936.19;;;6.93;68.60
21566;BME280;10943;48.738;9.320;2022-11-03T05:34:47;98924.81;;;7.35;67.91
21566;BME280;10943;48.738;9.320;2022-11-03T05:37:31;98925.22;;;7.39;67.80
21566;BME280;10943;48.738;9.320;2022-11-03T05:40:25;98921.66;;;7.25;67.52
21566;BME280;10943;48.738;9.320;2022-11-03T05:42:58;98915.72;;;7.28;68.25
21566;BME280;10943;48.738;9.320;2022-11-03T05:45:34;98911.50;;;7.25;68.16
21566;BME280;10943;48.738;9.320;2022-11-03T05:48:18;98911.53;;;7.64;66.69
21566;BME280;10943;48.738;9.320;2022-11-03T05:50:53;98911.75;;;7.10;67.12
21566;BME280;10943;48.738;9.320;2022-11-03T05:53:31;98908.56;;;7.14;67.79
21566;BME280;10943;48.738;9.320;2022-11-03T05:56:06;98899.78;;;7.30;67.76
21566;BME280;10943;48.738;9.320;2022-11-03T05:58:38;98901.88;;;7.41;67.25
21566;BME280;10943;48.738;9.320;2022-11-03T06:03:47;98905.63;;;7.54;66.58
21566;BME280;10943;48.738;9.320;2022-11-03T06:06:22;98904.63;;;7.41;66.79
21566;BME280;10943;48.738;9.320;2022-11-03T06:09:08;98897.25;;;7.29;67.02
21566;BME280;10943;48.738;9.320;2022-11-03T06:11:39;98885.88;;;7.57;66.56
21566;BME280;10943;48.738;9.320;2022-11-03T06:14:20;98900.22;;;7.34;67.29
21566;BME280;10943;48.738;9.320;2022-11-03T06:17:03;98894.50;;;7.29;67.32
21566;BME280;10943;48.738;9.320;2022-11-03T06:19:41;98883.31;;;7.17;67.75
21566;BME280;10943;48.738;9.320;2022-11-03T06:22:29;98885.88;;;7.57;67.06
21566;BME280;10943;48.738;9.320;2022-11-03T06:27:58;98870.88;;;7.78;66.20
21566;BME280;10943;48.738;9.320;2022-11-03T06:30:38;98869.34;;;7.82;65.77
21566;BME280;10943;48.738;9.320;2022-11-03T06:33:25;98868.69;;;7.55;66.91
21566;BME280;10943;48.738;9.320;2022-11-03T06:36:02;98863.16;;;7.62;66.63
21566;BME280;10943;48.738;9.320;2022-11-03T06:38:36;98857.31;;;7.38;67.26
21566;BME280;10943;48.738;9.320;2022-11-03T06:41:03;98863.75;;;7.25;67.90
21566;BME280;10943;48.738;9.320;2022-11-03T06:43:41;98870.97;;;7.26;67.96
21566;BME280;10943;48.738;9.320;2022-11-03T06:46:29;98869.53;;;7.17;68.12
21566;BME280;10943;48.738;9.320;2022-11-03T06:48:59;98870.88;;;7.46;67.97
21566;BME280;10943;48.738;9.320;2022-11-03T06:51:29;98871.09;;;7.76;66.83
21566;BME280;10943;48.738;9.320;2022-11-03T06:53:59;98872.09;;;8.14;65.85
21566;BME280;10943;48.738;9.320;2022-11-03T06:56:34;98878.88;;;8.43;64.80
21566;BME280;10943;48.738;9.320;2022-11-03T06:59:02;98878.13;;;8.55;64.16
21566;BME280;10943;48.738;9.320;2022-11-03T07:01:34;98876.34;;;8.42;63.95
21566;BME280;10943;48.738;9.320;2022-11-03T07:04:18;98873.75;;;8.22;65.87
21566;BME280;10943;48.738;9.320;2022-11-03T07:06:49;98883.72;;;8.23;65.67
21566;BME280;10943;48.738;9.320;2022-11-03T07:09:23;98870.81;;;8.42;65.95
21566;BME280;10943;48.738;9.320;2022-11-03T07:11:58;98865.50;;;8.47;65.73
21566;BME280;10943;48.738;9.320;2022-11-03T07:14:30;98857.56;;;8.51;66.37
21566;BME280;10943;48.738;9.320;2022-11-03T07:17:05;98852.06;;;8.88;65.99
21566;BME280;10943;48.738;9.320;2022-11-03T07:19:44;98855.00;;;8.93;65.66
21566;BME280;10943;48.738;9.320;2022-11-03T07:24:58;98840.63;;;8.66;65.54
21566;BME280;10943;48.738;9.320;2022-11-03T07:27:35;98836.03;;;8.97;64.13
21566;BME280;10943;48.738;9.320;2022-11-03T07:30:20;98831.34;;;8.97;64.47
21566;BME280;10943;48.738;9.320;2022-11-03T07:32:52;98819.00;;;9.30;63.77
21566;BME280;10943;48.738;9.320;2022-11-03T07:35:36;98818.16;;;9.30;63.64
21566;BME280;10943;48.738;9.320;2022-11-03T07:38:27;98820.59;;;9.80;62.87
21566;BME280;10943;48.738;9.320;2022-11-03T07:40:58;98822.84;;;10.14;62.89
21566;BME280;10943;48.738;9.320;2022-11-03T07:43:33;98820.34;;;10.48;59.87
21566;BME280;10943;48.738;9.320;2022-11-03T07:46:04;98824.31;;;10.76;59.96
21566;BME280;10943;48.738;9.320;2022-11-03T07:48:41;98813.47;;;10.86;59.24
21566;BME280;10943;48.738;9.320;2022-11-03T07:51:32;98816.00;;;10.52;60.62
21566;BME280;10943;48.738;9.320;2022-11-03T07:54:22;98803.84;;;10.53;61.29
21566;BME280;10943;48.738;9.320;2022-11-03T07:56:57;98795.59;;;10.82;60.84
21566;BME280;10943;48.738;9.320;2022-11-03T08:02:30;98794.13;;;11.78;57.23
21566;BME280;10943;48.738;9.320;2022-11-03T08:05:02;98791.03;;;11.74;58.07
21566;BME280;10943;48.738;9.320;2022-11-03T08:07:31;98788.69;;;12.00;57.73
21566;BME280;10943;48.738;9.320;2022-11-03T08:09:58;98788.38;;;12.30;57.51
21566;BME280;10943;48.738;9.320;2022-11-03T08:12:26;98788.31;;;12.64;55.55
21566;BME280;10943;48.738;9.320;2022-11-03T08:14:53;98777.38;;;12.80;53.94
21566;BME280;10943;48.738;9.320;2022-11-03T08:17:46;98776.63;;;12.84;55.29
21566;BME280;10943;48.738;9.320;2022-11-03T08:20:19;98767.53;;;13.16;53.35
21566;BME280;10943;48.738;9.320;2022-11-03T08:22:46;98754.72;;;13.15;53.80
21566;BME280;10943;48.738;9.320;2022-11-03T08:25:34;98755.56;;;13.38;53.66
21566;BME280;10943;48.738;9.320;2022-11-03T08:28:01;98749.41;;;14.33;51.18
21566;BME280;10943;48.738;9.320;2022-11-03T08:30:30;98744.41;;;14.35;51.03
21566;BME280;10943;48.738;9.320;2022-11-03T08:32:57;98732.56;;;14.13;51.24
21566;BME280;10943;48.738;9.320;2022-11-03T08:35:25;98731.38;;;14.99;50.17
21566;BME280;10943;48.738;9.320;2022-11-03T08:37:59;98711.72;;;16.25;49.12
21566;BME280;10943;48.738;9.320;2022-11-03T08:40:26;98716.03;;;17.43;46.83
21566;BME280;10943;48.738;9.320;2022-11-03T08:42:53;98721.31;;;18.24;44.39
21566;BME280;10943;48.738;9.320;2022-11-03T08:45:20;98731.41;;;18.78;42.04
21566;BME280;10943;48.738;9.320;2022-11-03T08:47:48;98727.00;;;18.72;40.89
21566;BME280;10943;48.738;9.320;2022-11-03T08:50:15;98723.53;;;18.27;41.93
21566;BME280;10943;48.738;9.320;2022-11-03T08:52:42;98727.22;;;19.24;39.75
21566;BME280;10943;48.738;9.320;2022-11-03T08:55:10;98719.41;;;19.40;38.96
21566;BME280;10943;48.738;9.320;2022-11-03T08:57:37;98714.38;;;19.18;39.41
21566;BME280;10943;48.738;9.320;2022-11-03T09:00:06;98713.38;;;19.09;40.23
21566;BME280;10943;48.738;9.320;2022-11-03T09:02:34;98706.88;;;19.52;39.33
21566;BME280;10943;48.738;9.320;2022-11-03T09:05:02;98698.50;;;19.66;38.91
21566;BME280;10943;48.738;9.320;2022-11-03T09:07:30;98694.28;;;20.01;37.58
21566;BME280;10943;48.738;9.320;2022-11-03T09:10:18;98691.16;;;19.89;37.79
21566;BME280;10943;48.738;9.320;2022-11-03T09:12:50;98699.94;;;19.82;37.68
21566;BME280;10943;48.738;9.320;2022-11-03T09:15:18;98708.56;;;20.24;38.73
21566;BME280;10943;48.738;9.320;2022-11-03T09:17:46;98710.03;;;21.33;37.08
21566;BME280;10943;48.738;9.320;2022-11-03T09:20:14;98702.19;;;22.25;34.48
21566;BME280;10943;48.738;9.320;2022-11-03T09:22:41;98690.66;;;22.36;34.84
21566;BME280;10943;48.738;9.320;2022-11-03T09:25:09;98695.97;;;22.37;33.31
21566;BME280;10943;48.738;9.320;2022-11-03T09:27:36;98698.03;;;22.23;34.63
21566;BME280;10943;48.738;9.320;2022-11-03T09:30:05;98701.16;;;21.90;34.74
21566;BME280;10943;48.738;9.320;2022-11-03T09:32:40;98685.16;;;21.85;34.29
21566;BME280;10943;48.738;9.320;2022-11-03T09:35:08;98681.81;;;21.61;35.41
21566;BME280;10943;48.738;9.320;2022-11-03T09:37:35;98680.91;;;22.19;34.62
21566;BME280;10943;48.738;9.320;2022-11-03T09:40:03;98681.28;;;22.04;34.31
21566;BME280;10943;48.738;9.320;2022-11-03T09:42:32;98692.94;;;22.34;35.05
21566;BME280;10943;48.738;9.320;2022-11-03T09:45:01;98681.22;;;23.30;33.08
21566;BME280;10943;48.738;9.320;2022-11-03T09:47:37;98678.44;;;23.91;32.22
21566;BME280;10943;48.738;9.320;2022-11-03T09:50:15;98678.69;;;24.33;31.71
21566;BME280;10943;48.738;9.320;2022-11-03T09:52:48;98670.44;;;24.58;30.88
21566;BME280;10943;48.738;9.320;2022-11-03T09:55:23;98659.53;;;24.78;31.19
21566;BME280;10943;48.738;9.320;2022-11-03T09:58:00;98664.41;;;24.21;31.81
21566;BME280;10943;48.738;9.320;2022-11-03T10:00:28;98664.44;;;23.42;32.78
21566;BME280;10943;48.738;9.320;2022-11-03T10:02:57;98655.63;;;22.77;33.61
21566;BME280;10943;48.738;9.320;2022-11-03T10:05:27;98650.25;;;22.04;35.06
21566;BME280;10943;48.738;9.320;2022-11-03T10:08:03;98644.63;;;21.58;36.18
21566;BME280;10943;48.738;9.320;2022-11-03T10:10:34;98634.63;;;21.02;37.53
21566;BME280;10943;48.738;9.320;2022-11-03T10:13:03;98631.03;;;19.99;38.35
21566;BME280;10943;48.738;9.320;2022-11-03T10:15:36;98627.16;;;19.94;39.28
21566;BME280;10943;48.738;9.320;2022-11-03T10:18:07;98627.59;;;20.02;38.98
21566;BME280;10943;48.738;9.320;2022-11-03T10:20:35;98617.72;;;19.52;40.06
21566;BME280;10943;48.738;9.320;2022-11-03T10:23:03;98616.53;;;19.39;40.27
21566;BME280;10943;48.738;9.320;2022-11-03T10:25:36;98606.38;;;18.81;41.62
21566;BME280;10943;48.738;9.320;2022-11-03T10:33:54;98599.94;;;18.13;43.66
21566;BME280;10943;48.738;9.320;2022-11-03T10:36:25;98601.97;;;18.07;43.93
21566;BME280;10943;48.738;9.320;2022-11-03T10:39:23;98582.97;;;17.99;43.92
21566;BME280;10943;48.738;9.320;2022-11-03T10:41:58;98582.03;;;17.79;44.29
21566;BME280;10943;48.738;9.320;2022-11-03T10:44:28;98578.09;;;17.80;44.38
21566;BME280;10943;48.738;9.320;2022-11-03T10:47:01;98581.69;;;17.57;44.90
21566;BME280;10943;48.738;9.320;2022-11-03T10:49:32;98575.69;;;17.69;44.62
21566;BME280;10943;48.738;9.320;2022-11-03T10:52:24;98576.53;;;17.98;43.44
21566;BME280;10943;48.738;9.320;2022-11-03T10:54:55;98563.88;;;17.42;44.93
21566;BME280;10943;48.738;9.320;2022-11-03T10:57:26;98564.19;;;18.00;44.58
21566;BME280;10943;48.738;9.320;2022-11-03T11:00:00;98557.72;;;18.67;43.49
21566;BME280;10943;48.738;9.320;2022-11-03T11:02:31;98557.16;;;19.27;41.92
21566;BME280;10943;48.738;9.320;2022-11-03T11:05:17;98552.56;;;19.31;41.63
21566;BME280;10943;48.738;9.320;2022-11-03T11:07:47;98544.56;;;19.71;40.55
21566;BME280;10943;48.738;9.320;2022-11-03T11:10:23;98542.88;;;20.17;39.53
21566;BME280;10943;48.738;9.320;2022-11-03T11:20:57;98513.72;;;18.81;41.60
21566;BME280;10943;48.738;9.320;2022-11-03T11:31:36;98490.16;;;17.95;44.39
21566;BME280;10943;48.738;9.320;2022-11-03T11:44:58;98472.81;;;18.75;43.29
21566;BME280;10943;48.738;9.320;2022-11-03T11:47:49;98470.22;;;18.98;42.36
21566;BME280;10943;48.738;9.320;2022-11-03T11:50:25;98469.31;;;18.83;43.09
21566;BME280;10943;48.738;9.320;2022-11-03T11:53:12;98457.41;;;18.91;42.77
21566;BME280;10943;48.738;9.320;2022-11-03T11:55:54;98451.03;;;18.86;43.11
21566;BME280;10943;48.738;9.320;2022-11-03T11:58:24;98448.78;;;18.69;43.43
21566;BME280;10943;48.738;9.320;2022-11-03T12:01:30;98439.41;;;18.92;42.67
21566;BME280;10943;48.738;9.320;2022-11-03T12:04:21;98429.38;;;18.86;42.96
21566;BME280;10943;48.738;9.320;2022-11-03T12:06:57;98433.94;;;18.82;43.00
21566;BME280;10943;48.738;9.320;2022-11-03T12:09:27;98423.34;;;18.79;42.78
21566;BME280;10943;48.738;9.320;2022-11-03T12:11:59;98416.13;;;18.92;43.03
21566;BME280;10943;48.738;9.320;2022-11-03T12:14:37;98413.63;;;18.90;43.06
21566;BME280;10943;48.738;9.320;2022-11-03T12:19:51;98394.47;;;18.92;42.76
21566;BME280;10943;48.738;9.320;2022-11-03T12:29:59;98373.75;;;18.88;43.02
21566;BME280;10943;48.738;9.320;2022-11-03T12:32:28;98367.16;;;18.79;43.40
21566;BME280;10943;48.738;9.320;2022-11-03T12:35:07;98367.41;;;18.83;43.47
21566;BME280;10943;48.738;9.320;2022-11-03T12:37:36;98350.50;;;19.02;42.81
21566;BME280;10943;48.738;9.320;2022-11-03T12:40:04;98358.88;;;18.55;44.00
21566;BME280;10943;48.738;9.320;2022-11-03T12:42:32;98354.28;;;18.45;44.17
21566;BME280;10943;48.738;9.320;2022-11-03T12:45:01;98341.34;;;18.63;43.71
21566;BME280;10943;48.738;9.320;2022-11-03T12:47:30;98329.72;;;18.84;43.40
21566;BME280;10943;48.738;9.320;2022-11-03T12:49:58;98325.84;;;18.99;43.31
21566;BME280;10943;48.738;9.320;2022-11-03T12:52:25;98322.41;;;19.02;43.05
21566;BME280;10943;48.738;9.320;2022-11-03T12:54:52;98332.22;;;19.18;42.80
21566;BME280;10943;48.738;9.320;2022-11-03T12:57:19;98320.78;;;18.82;43.68
21566;BME280;10943;48.738;9.320;2022-11-03T12:59:46;98317.63;;;18.69;43.88
21566;BME280;10943;48.738;9.320;2022-11-03T13:02:14;98307.75;;;18.58;44.29
21566;BME280;10943;48.738;9.320;2022-11-03T13:04:41;98290.13;;;18.52;44.45
21566;BME280;10943;48.738;9.320;2022-11-03T13:07:09;98287.34;;;18.19;45.37
21566;BME280;10943;48.738;9.320;2022-11-03T13:09:36;98285.78;;;18.60;44.57
21566;BME280;10943;48.738;9.320;2022-11-03T13:12:04;98274.56;;;18.60;44.64
21566;BME280;10943;48.738;9.320;2022-11-03T13:14:50;98274.78;;;18.30;45.55
21566;BME280;10943;48.738;9.320;2022-11-03T13:17:17;98258.88;;;18.26;45.79
21566;BME280;10943;48.738;9.320;2022-11-03T13:19:45;98255.28;;;18.39;45.69
21566;BME280;10943;48.738;9.320;2022-11-03T13:22:12;98247.25;;;18.33;45.70
21566;BME280;10943;48.738;9.320;2022-11-03T13:24:41;98231.84;;;18.63;45.24
21566;BME280;10943;48.738;9.320;2022-11-03T13:27:08;98228.56;;;18.42;45.73
21566;BME280;10943;48.738;9.320;2022-11-03T13:29:36;98222.19;;;18.22;46.41
21566;BME280;10943;48.738;9.320;2022-11-03T13:32:04;98221.81;;;18.43;45.95
21566;BME280;10943;48.738;9.320;2022-11-03T13:34:31;98205.91;;;18.38;46.09
21566;BME280;10943;48.738;9.320;2022-11-03T13:36:59;98205.34;;;18.22;46.29
21566;BME280;10943;48.738;9.320;2022-11-03T13:39:28;98200.63;;;18.04;46.93
21566;BME280;10943;48.738;9.320;2022-11-03T13:41:56;98191.16;;;18.00;47.25
21566;BME280;10943;48.738;9.320;2022-11-03T13:44:23;98189.50;;;17.79;47.80
21566;BME280;10943;48.738;9.320;2022-11-03T13:46:50;98193.88;;;18.05;47.32
21566;BME280;10943;48.738;9.320;2022-11-03T13:49:18;98180.97;;;18.51;46.07
21566;BME280;10943;48.738;9.320;2022-11-03T13:52:07;98174.31;;;18.33;46.41
21566;BME280;10943;48.738;9.320;2022-11-03T13:54:34;98168.75;;;18.13;46.85
21566;BME280;10943;48.738;9.320;2022-11-03T13:57:22;98164.25;;;18.45;46.39
21566;BME280;10943;48.738;9.320;2022-11-03T14:00:11;98169.69;;;18.09;47.21
21566;BME280;10943;48.738;9.320;2022-11-03T14:02:40;98164.75;;;18.01;47.51
21566;BME280;10943;48.738;9.320;2022-11-03T14:05:28;98153.81;;;17.85;47.96
21566;BME280;10943;48.738;9.320;2022-11-03T14:07:55;98144.22;;;17.72;48.36
21566;BME280;10943;48.738;9.320;2022-11-03T14:10:22;98140.88;;;17.70;48.67
21566;BME280;10943;48.738;9.320;2022-11-03T14:12:50;98126.13;;;17.45;49.45
21566;BME280;10943;48.738;9.320;2022-11-03T14:15:18;98125.09;;;17.93;48.06
21566;BME280;10943;48.738;9.320;2022-11-03T14:17:45;98115.25;;;17.77;48.57
21566;BME280;10943;48.738;9.320;2022-11-03T14:20:13;98114.72;;;17.75;48.92
21566;BME280;10943;48.738;9.320;2022-11-03T14:22:41;98096.66;;;17.67;48.92
21566;BME280;10943;48.738;9.320;2022-11-03T14:25:09;98095.97;;;17.56;49.25
21566;BME280;10943;48.738;9.320;2022-11-03T14:27:36;98102.44;;;17.71;49.05
21566;BME280;10943;48.738;9.320;2022-11-03T14:30:05;98092.81;;;17.44;49.68
21566;BME280;10943;48.738;9.320;2022-11-03T14:32:33;98091.22;;;17.38;49.96
21566;BME280;10943;48.738;9.320;2022-11-03T14:35:01;98090.84;;;17.44;49.76
21566;BME280;10943;48.738;9.320;2022-11-03T14:37:29;98095.94;;;17.42;50.06
21566;BME280;10943;48.738;9.320;2022-11-03T14:39:57;98103.94;;;17.49;50.03
21566;BME280;10943;48.738;9.320;2022-11-03T14:42:25;98110.75;;;17.62;49.93
21566;BME280;10943;48.738;9.320;2022-11-03T14:44:52;98094.91;;;17.52;50.24
21566;BME280;10943;48.738;9.320;2022-11-03T14:47:20;98094.66;;;17.68;49.91
21566;BME280;10943;48.738;9.320;2022-11-03T14:49:48;98090.13;;;17.53;nan
21566;BME280;10943;48.738;9.320;2022-11-03T14:52:16;98091.38;;;17.46;50.61
21566;BME280;10943;48.738;9.320;2022-11-03T14:54:44;98073.41;;;17.47;50.53